Time;durP1;ratioP1;P1;durP2;ratioP2;P2;SDS_P1;SDS_P2;PMS_P1;PMS_P2;Temp;Humidity;BMP_temperature;BMP_pressure;BME280_temperature;BME280_humidity;BME280_pressure;Samples;Min_cycle;Max_cycle;Signal;HPM_P1;HPM_P2
2023/03/04 00:01:35;;;;;;;22.20;11.30;;;;;;;6.15;71.88;102527.25;5073085;28;20111;-39
2023/03/04 00:04:00;;;;;;;24.17;11.35;;;;;;;6.22;72.39;102532.63;5073179;28;20020;-41
2023/03/04 00:06:25;;;;;;;25.15;12.00;;;;;;;6.26;72.23;102538.50;5055359;28;20527;-38
2023/03/04 00:08:51;;;;;;;24.00;11.98;;;;;;;6.29;72.08;102538.84;5070058;28;20024;-40
2023/03/04 00:11:16;;;;;;;24.75;11.80;;;;;;;6.27;72.23;102535.50;5073170;28;20025;-38
2023/03/04 00:13:41;;;;;;;25.23;11.30;;;;;;;6.26;72.32;102539.31;5073038;28;20028;-39
2023/03/04 00:16:07;;;;;;;22.05;11.15;;;;;;;6.26;72.14;102528.31;5073028;28;20479;-39
2023/03/04 00:18:32;;;;;;;24.10;12.00;;;;;;;6.23;72.75;102535.13;5072998;28;20472;-39
2023/03/04 00:20:57;;;;;;;22.65;11.75;;;;;;;6.26;72.15;102535.75;5072932;28;20028;-39
2023/03/04 00:23:23;;;;;;;21.67;11.27;;;;;;;6.24;72.74;102530.47;5072935;28;20438;-39
2023/03/04 00:25:48;;;;;;;25.55;11.77;;;;;;;6.19;72.88;102522.09;5072818;28;20064;-39
2023/03/04 00:28:14;;;;;;;23.80;12.00;;;;;;;6.25;72.79;102534.91;5072747;28;20032;-39
2023/03/04 00:30:39;;;;;;;25.27;11.85;;;;;;;6.22;72.62;102527.13;5054789;28;20024;-40
2023/03/04 00:33:04;;;;;;;24.00;11.48;;;;;;;6.27;73.00;102526.44;5072832;28;20039;-39
2023/03/04 00:35:30;;;;;;;22.92;11.55;;;;;;;6.24;73.11;102525.81;5072503;28;20373;-39
2023/03/04 00:37:55;;;;;;;24.95;11.75;;;;;;;6.30;72.80;102525.94;5072527;28;20036;-40
2023/03/04 00:40:20;;;;;;;26.70;11.32;;;;;;;6.31;72.61;102536.72;5072908;28;20426;-39
2023/03/04 00:42:46;;;;;;;23.08;11.57;;;;;;;6.33;72.63;102530.97;5054154;28;20032;-39
2023/03/04 00:45:11;;;;;;;21.25;11.38;;;;;;;6.37;72.69;102524.78;5072764;28;20025;-39
2023/03/04 00:47:36;;;;;;;24.40;11.90;;;;;;;6.37;71.64;102524.78;5054439;28;20060;-40
2023/03/04 00:50:02;;;;;;;24.35;10.98;;;;;;;6.38;71.46;102529.19;5072461;28;20024;-39
2023/03/04 00:52:28;;;;;;;21.67;11.05;;;;;;;6.37;71.20;102524.78;5072461;28;20036;-39
2023/03/04 00:54:53;;;;;;;23.40;10.40;;;;;;;6.34;70.53;102525.22;5072338;28;20049;-39
2023/03/04 00:57:18;;;;;;;21.38;10.57;;;;;;;6.36;72.11;102527.75;5072033;28;20377;-39
2023/03/04 00:59:45;;;;;;;20.88;10.20;;;;;;;6.37;71.43;102534.94;5072574;28;20088;-39
2023/03/04 01:02:10;;;;;;;21.20;10.30;;;;;;;6.40;71.44;102539.94;5072151;28;20081;-39
2023/03/04 01:04:36;;;;;;;24.23;10.77;;;;;;;6.40;71.04;102531.69;5068282;28;20025;-39
2023/03/04 01:07:01;;;;;;;23.38;10.50;;;;;;;6.35;71.02;102534.34;5070790;28;20028;-40
2023/03/04 01:09:27;;;;;;;22.20;10.00;;;;;;;6.32;71.89;102530.16;5072138;28;20058;-40
2023/03/04 01:11:52;;;;;;;25.85;10.32;;;;;;;6.35;72.68;102531.59;5072170;28;20514;-40
2023/03/04 01:14:18;;;;;;;23.17;10.73;;;;;;;6.40;72.59;102537.19;5072225;28;20464;-39
2023/03/04 01:16:43;;;;;;;22.60;10.90;;;;;;;6.38;71.69;102537.44;5072267;28;20411;-39
2023/03/04 01:19:08;;;;;;;21.73;10.52;;;;;;;6.39;72.41;102539.13;5072141;28;20121;-38
2023/03/04 01:21:34;;;;;;;22.42;10.73;;;;;;;6.35;71.68;102526.91;5072235;28;20027;-39
2023/03/04 01:23:59;;;;;;;20.25;10.75;;;;;;;6.36;72.69;102538.75;5072142;28;20028;-40
2023/03/04 01:26:24;;;;;;;19.70;10.32;;;;;;;6.31;72.02;102530.38;5072053;28;20031;-38
2023/03/04 01:28:50;;;;;;;22.70;10.95;;;;;;;6.30;72.43;102531.44;5072015;28;20060;-39
2023/03/04 01:31:15;;;;;;;22.23;10.57;;;;;;;6.24;71.99;102530.47;5072091;28;20032;-39
2023/03/04 01:33:40;;;;;;;21.70;10.48;;;;;;;6.26;72.38;102519.25;5071822;28;20181;-38
2023/03/04 01:36:06;;;;;;;20.90;10.88;;;;;;;6.23;72.72;102526.06;5072029;28;20020;-40
2023/03/04 01:38:31;;;;;;;23.23;11.40;;;;;;;6.23;73.11;102528.81;5072171;28;20384;-39
2023/03/04 01:40:57;;;;;;;23.42;10.90;;;;;;;6.16;72.86;102517.06;5054054;28;20031;-39
2023/03/04 01:43:25;;;;;;;20.95;10.88;;;;;;;6.17;73.46;102519.59;5053898;28;20407;-40
2023/03/04 01:45:52;;;;;;;19.90;10.65;;;;;;;6.14;72.93;102513.75;5071688;28;20030;-40
2023/03/04 01:48:23;;;;;;;18.02;10.00;;;;;;;6.13;73.00;102515.63;5071827;28;20021;-40
2023/03/04 01:50:49;;;;;;;21.52;10.65;;;;;;;6.15;73.48;102510.75;5071926;28;20169;-37
2023/03/04 01:53:26;;;;;;;21.85;10.50;;;;;;;6.15;73.11;102505.25;5071659;28;20020;-37
2023/03/04 01:55:55;;;;;;;20.70;10.88;;;;;;;6.13;73.76;102495.56;5075728;28;20029;-38
2023/03/04 01:58:20;;;;;;;21.95;11.02;;;;;;;6.16;73.86;102500.59;5075628;28;20039;-38
2023/03/04 02:00:45;;;;;;;23.45;10.88;;;;;;;6.11;73.65;102501.28;5071823;28;20044;-39
2023/03/04 02:03:14;;;;;;;23.27;10.52;;;;;;;6.12;74.12;102497.47;5075657;28;20103;-39
2023/03/04 02:05:46;;;;;;;21.75;10.50;;;;;;;6.13;74.67;102487.34;5075476;28;20503;-40
2023/03/04 02:08:14;;;;;;;19.70;10.32;;;;;;;6.09;73.74;102482.31;5075447;28;20448;-39
2023/03/04 02:10:42;;;;;;;20.48;10.25;;;;;;;6.06;73.58;102479.19;5057383;28;20032;-38
2023/03/04 02:13:07;;;;;;;19.30;10.00;;;;;;;6.13;74.07;102490.91;5075314;28;20017;-39
2023/03/04 02:15:33;;;;;;;21.40;10.70;;;;;;;6.06;73.77;102482.75;5075250;28;20345;-39
2023/03/04 02:17:58;;;;;;;21.77;10.20;;;;;;;6.13;74.25;102481.84;5075317;28;20028;-40
2023/03/04 02:20:52;;;;;;;22.70;10.60;;;;;;;6.08;74.41;102477.88;5075416;28;20376;-39
2023/03/04 02:23:28;;;;;;;21.27;10.40;;;;;;;6.13;74.03;102476.34;5057424;28;20025;-39
2023/03/04 02:26:11;;;;;;;21.83;10.25;;;;;;;6.13;74.64;102484.59;5075448;28;20021;-39
2023/03/04 02:28:36;;;;;;;21.58;10.85;;;;;;;6.14;74.88;102478.03;5075225;28;20060;-39
2023/03/04 02:31:02;;;;;;;22.08;10.05;;;;;;;6.13;74.83;102473.59;5057070;28;20060;-39
2023/03/04 02:33:27;;;;;;;19.48;10.40;;;;;;;6.11;74.41;102473.00;5057041;28;20028;-39
2023/03/04 02:35:53;;;;;;;20.52;10.48;;;;;;;6.07;74.85;102473.44;5075159;28;20021;-39
2023/03/04 02:38:18;;;;;;;20.58;10.50;;;;;;;6.07;75.00;102475.38;5075041;28;20028;-39
2023/03/04 02:40:47;;;;;;;20.55;10.40;;;;;;;6.02;75.03;102461.47;5056988;28;20127;-39
2023/03/04 02:43:13;;;;;;;22.00;10.40;;;;;;;6.01;75.02;102471.66;5074781;28;20047;-39
2023/03/04 02:45:48;;;;;;;19.42;10.35;;;;;;;6.02;75.77;102466.97;5074782;28;20021;-39
2023/03/04 02:48:18;;;;;;;20.30;10.93;;;;;;;6.00;75.10;102463.66;5074746;28;20039;-40
2023/03/04 02:50:50;;;;;;;22.38;10.35;;;;;;;6.09;74.91;102470.47;5074750;28;20040;-39
2023/03/04 02:53:16;;;;;;;19.58;10.75;;;;;;;6.11;74.96;102464.75;5074453;28;20032;-39
2023/03/04 02:55:42;;;;;;;19.00;10.05;;;;;;;6.11;74.90;102462.00;5074676;28;20024;-39
2023/03/04 02:58:08;;;;;;;19.45;10.70;;;;;;;6.05;74.49;102450.84;5071127;28;20100;-39
2023/03/04 03:00:33;;;;;;;19.85;10.02;;;;;;;6.04;74.42;102457.44;5073921;28;20645;-39
2023/03/04 03:02:58;;;;;;;21.83;11.05;;;;;;;6.00;74.51;102455.41;5074132;28;20032;-39
2023/03/04 03:05:27;;;;;;;20.75;10.65;;;;;;;5.96;74.84;102449.50;5073908;28;20028;-39
2023/03/04 03:07:52;;;;;;;21.00;11.07;;;;;;;6.05;76.22;102456.34;5074305;28;20412;-39
2023/03/04 03:10:18;;;;;;;22.73;10.93;;;;;;;6.08;75.92;102460.56;5074163;28;20024;-40
2023/03/04 03:12:43;;;;;;;20.10;10.70;;;;;;;6.05;75.96;102453.59;5055619;28;20443;-40
2023/03/04 03:15:09;;;;;;;20.90;10.75;;;;;;;6.05;75.99;102447.28;5073615;28;20078;-39
2023/03/04 03:17:34;;;;;;;22.63;10.82;;;;;;;6.05;76.15;102452.78;5074031;28;20025;-39
2023/03/04 03:19:59;;;;;;;22.50;10.73;;;;;;;6.05;76.23;102456.34;5074261;28;20036;-40
2023/03/04 03:22:25;;;;;;;22.38;10.93;;;;;;;6.05;76.31;102448.13;5074331;28;20025;-40
2023/03/04 03:24:50;;;;;;;21.13;10.90;;;;;;;6.05;76.57;102441.78;5074159;28;20472;-40
2023/03/04 03:27:15;;;;;;;19.55;10.50;;;;;;;6.09;76.71;102452.06;5073888;28;20044;-39
2023/03/04 03:29:41;;;;;;;19.83;10.77;;;;;;;6.13;75.93;102443.38;5073800;28;20497;-40
2023/03/04 03:32:06;;;;;;;23.08;10.77;;;;;;;6.09;75.65;102440.25;5073792;28;20507;-40
2023/03/04 03:34:31;;;;;;;19.23;10.40;;;;;;;6.07;76.07;102445.97;5073705;28;20032;-39
2023/03/04 03:36:57;;;;;;;19.23;10.20;;;;;;;6.12;76.05;102441.69;5073642;28;20028;-39
2023/03/04 03:39:22;;;;;;;21.67;10.32;;;;;;;6.11;76.00;102442.75;5073926;28;20016;-39
2023/03/04 03:41:47;;;;;;;22.20;10.02;;;;;;;6.14;75.45;102442.28;5073709;28;20034;-39
2023/03/04 03:44:13;;;;;;;20.88;9.90;;;;;;;6.16;74.71;102440.13;5073644;28;20078;-38
2023/03/04 03:46:38;;;;;;;20.45;9.85;;;;;;;6.17;74.90;102444.56;5073701;28;20082;-39
2023/03/04 03:49:03;;;;;;;19.50;10.05;;;;;;;6.18;75.26;102440.72;5073574;28;20017;-39
2023/03/04 03:51:28;;;;;;;20.63;10.20;;;;;;;6.19;74.94;102434.16;5073383;28;20478;-39
2023/03/04 03:53:54;;;;;;;19.52;10.45;;;;;;;6.15;74.84;102435.69;5069689;28;20028;-39
2023/03/04 03:56:19;;;;;;;19.25;10.43;;;;;;;6.13;75.22;102435.13;5073165;28;20051;-39
2023/03/04 03:58:44;;;;;;;23.45;10.40;;;;;;;6.09;75.47;102434.75;5073417;28;20082;-39
2023/03/04 04:01:10;;;;;;;20.10;10.77;;;;;;;6.11;74.74;102429.84;5073465;28;20048;-39
2023/03/04 04:03:35;;;;;;;23.63;11.25;;;;;;;6.12;74.56;102431.53;5073125;28;20495;-40
2023/03/04 04:06:00;;;;;;;23.05;11.05;;;;;;;6.09;74.68;102440.25;5073153;28;20081;-39
2023/03/04 04:08:26;;;;;;;22.50;10.80;;;;;;;6.05;74.78;102434.38;5073130;28;20032;-40
2023/03/04 04:10:51;;;;;;;17.25;9.80;;;;;;;6.08;74.50;102438.59;5055259;28;20500;-40
2023/03/04 04:13:17;;;;;;;20.35;10.25;;;;;;;6.06;74.37;102446.22;5072939;28;20033;-40
2023/03/04 04:15:42;;;;;;;21.00;10.63;;;;;;;6.07;74.63;102437.72;5072366;28;20028;-39
2023/03/04 04:18:08;;;;;;;21.10;10.70;;;;;;;6.07;74.71;102442.41;5072485;28;20487;-40
2023/03/04 04:20:33;;;;;;;22.08;11.23;;;;;;;6.03;74.33;102442.03;5072857;28;20028;-40
2023/03/04 04:22:59;;;;;;;20.27;10.80;;;;;;;6.02;74.44;102445.84;5072526;28;20025;-40
2023/03/04 04:25:24;;;;;;;21.67;10.20;;;;;;;6.01;74.56;102441.44;5072669;28;20032;-39
2023/03/04 04:27:49;;;;;;;19.73;10.70;;;;;;;6.00;74.40;102438.94;5072817;28;20024;-39
2023/03/04 04:30:15;;;;;;;21.63;10.20;;;;;;;6.00;74.69;102438.94;5072725;28;20114;-39
2023/03/04 04:32:40;;;;;;;21.50;10.57;;;;;;;6.01;75.17;102444.19;5072594;28;20032;-39
2023/03/04 04:35:06;;;;;;;20.48;10.70;;;;;;;5.98;74.89;102427.31;5072549;28;20028;-39
2023/03/04 04:37:32;;;;;;;22.75;10.85;;;;;;;6.04;75.49;102445.59;5072578;28;20036;-39
2023/03/04 04:39:57;;;;;;;20.02;10.50;;;;;;;6.03;74.95;102444.78;5072722;28;20028;-40
2023/03/04 04:42:22;;;;;;;20.10;10.70;;;;;;;5.99;75.45;102442.72;5072484;28;20080;-39
2023/03/04 04:44:48;;;;;;;17.48;10.68;;;;;;;5.93;74.47;102439.00;5072491;28;20064;-40
2023/03/04 04:47:13;;;;;;;21.80;10.40;;;;;;;5.94;75.70;102444.25;5072505;28;20030;-39
2023/03/04 04:49:39;;;;;;;22.40;11.10;;;;;;;5.96;75.75;102446.75;5069158;28;20032;-40
2023/03/04 04:52:04;;;;;;;21.83;10.80;;;;;;;5.96;75.51;102448.66;5072342;28;20356;-40
2023/03/04 04:54:30;;;;;;;20.27;10.68;;;;;;;5.99;76.03;102450.97;5072445;28;20108;-40
2023/03/04 04:56:55;;;;;;;19.90;11.10;;;;;;;5.95;74.94;102456.09;5072342;28;20052;-39
2023/03/04 04:59:21;;;;;;;18.70;10.80;;;;;;;5.93;75.72;102448.06;5054467;28;20472;-39
2023/03/04 05:01:46;;;;;;;21.55;11.02;;;;;;;5.97;75.85;102447.59;5072209;28;20040;-40
2023/03/04 05:04:12;;;;;;;22.83;11.48;;;;;;;5.97;74.95;102451.16;5072233;28;20086;-40
2023/03/04 05:06:37;;;;;;;19.77;10.70;;;;;;;5.98;75.12;102449.28;5054285;28;20385;-38
2023/03/04 05:09:03;;;;;;;21.63;11.02;;;;;;;5.90;74.85;102439.47;5054471;28;20059;-38
2023/03/04 05:11:28;;;;;;;19.80;10.60;;;;;;;5.96;75.20;102448.66;5037742;28;20115;-39
2023/03/04 05:13:54;;;;;;;19.15;11.02;;;;;;;5.92;75.10;102440.06;5054310;28;20027;-39
2023/03/04 05:16:19;;;;;;;20.33;10.90;;;;;;;5.94;75.45;102451.66;5072321;28;20048;-39
2023/03/04 05:18:45;;;;;;;22.27;10.60;;;;;;;5.91;75.38;102443.88;5072210;28;20111;-39
2023/03/04 05:21:10;;;;;;;20.48;10.80;;;;;;;5.88;74.82;102447.94;5072304;28;20048;-39
2023/03/04 05:23:38;;;;;;;18.08;10.60;;;;;;;5.90;74.32;102450.44;5072349;28;20418;-39
2023/03/04 05:26:04;;;;;;;20.63;10.60;;;;;;;5.90;74.81;102443.03;5072164;28;20021;-38
2023/03/04 05:28:30;;;;;;;21.40;11.10;;;;;;;5.95;75.00;102442.34;5074232;28;20480;-39
2023/03/04 05:30:55;;;;;;;20.90;10.82;;;;;;;5.93;74.97;102439.81;5076325;28;20037;-39
2023/03/04 05:33:21;;;;;;;19.55;11.15;;;;;;;5.85;75.14;102437.41;5076114;28;20036;-39
2023/03/04 05:35:47;;;;;;;23.67;11.02;;;;;;;5.83;75.56;102427.75;5076303;28;20036;-39
2023/03/04 05:38:15;;;;;;;20.55;10.55;;;;;;;5.91;75.94;102441.13;5076260;28;20027;-38
2023/03/04 05:40:41;;;;;;;21.90;10.90;;;;;;;5.91;75.54;102439.22;5075487;28;20396;-39
2023/03/04 05:43:06;;;;;;;19.95;10.65;;;;;;;5.90;75.76;102445.78;5075890;28;20040;-39
2023/03/04 05:45:32;;;;;;;20.88;11.43;;;;;;;5.88;75.44;102445.19;5072070;28;20036;-39
2023/03/04 05:47:58;;;;;;;20.15;11.38;;;;;;;5.88;76.32;102452.59;5075715;28;20153;-38
2023/03/04 05:50:23;;;;;;;21.10;11.23;;;;;;;5.91;76.17;102463.13;5075871;28;20166;-39
2023/03/04 05:52:49;;;;;;;24.50;11.73;;;;;;;5.93;76.55;102460.97;5075870;28;20103;-39
2023/03/04 05:55:15;;;;;;;20.35;10.75;;;;;;;5.93;76.87;102458.22;5075856;28;20025;-38
2023/03/04 05:57:40;;;;;;;17.95;11.00;;;;;;;5.97;77.50;102459.41;5075721;28;20365;-39
2023/03/04 06:00:08;;;;;;;22.70;10.90;;;;;;;5.97;77.59;102458.59;5075611;28;20194;-39
2023/03/04 06:02:34;;;;;;;19.15;10.68;;;;;;;5.95;77.09;102464.34;5075478;28;20024;-38
2023/03/04 06:05:00;;;;;;;19.80;10.55;;;;;;;5.96;77.51;102465.97;5075599;28;20028;-39
2023/03/04 06:07:25;;;;;;;19.83;10.35;;;;;;;5.96;77.19;102456.91;5075271;28;20495;-39
2023/03/04 06:09:50;;;;;;;20.35;10.63;;;;;;;5.97;77.69;102458.59;5075452;28;20029;-39
2023/03/04 06:12:15;;;;;;;20.73;10.85;;;;;;;5.97;77.59;102450.34;5075437;28;20108;-38
2023/03/04 06:14:41;;;;;;;19.10;10.48;;;;;;;5.99;77.36;102459.19;5074798;28;20178;-39
2023/03/04 06:17:06;;;;;;;19.70;10.50;;;;;;;5.95;77.03;102461.59;5075136;28;20032;-39
2023/03/04 06:19:31;;;;;;;18.73;10.88;;;;;;;5.93;77.79;102459.06;5075117;28;20063;-39
2023/03/04 06:21:56;;;;;;;19.27;11.02;;;;;;;5.86;77.62;102455.56;5057042;28;20453;-39
2023/03/04 06:24:22;;;;;;;20.77;10.45;;;;;;;5.86;77.55;102468.44;5075067;28;20032;-39
2023/03/04 06:26:47;;;;;;;19.73;10.20;;;;;;;5.80;77.67;102459.28;5075213;28;20043;-39
2023/03/04 06:29:13;;;;;;;16.00;10.43;;;;;;;5.77;79.06;102467.97;5074735;28;20020;-39
2023/03/04 06:31:40;;;;;;;19.45;10.77;;;;;;;5.78;79.43;102462.22;5074901;28;20044;-39
2023/03/04 06:34:06;;;;;;;22.20;10.50;;;;;;;5.81;78.43;102471.06;5075098;28;20068;-40
2023/03/04 06:36:31;;;;;;;19.83;10.60;;;;;;;5.81;77.96;102465.59;5074955;28;20064;-39
2023/03/04 06:38:56;;;;;;;18.10;10.60;;;;;;;5.81;78.53;102471.06;5074392;28;20042;-39
2023/03/04 06:41:21;;;;;;;21.15;10.43;;;;;;;5.81;78.39;102471.91;5071554;28;20127;-39
2023/03/04 06:43:47;;;;;;;19.60;10.20;;;;;;;5.81;77.83;102480.13;5075114;28;20082;-39
2023/03/04 06:46:12;;;;;;;18.33;10.48;;;;;;;5.81;78.19;102477.41;5075012;28;20021;-39
2023/03/04 06:48:37;;;;;;;17.17;10.40;;;;;;;5.78;78.64;102478.72;5074855;28;20032;-38
2023/03/04 06:51:10;;;;;;;20.48;10.30;;;;;;;5.78;79.22;102475.97;5074752;28;20032;-39
2023/03/04 06:53:37;;;;;;;17.83;10.50;;;;;;;5.80;79.35;102474.91;5074572;28;20037;-38
2023/03/04 06:56:03;;;;;;;20.15;10.70;;;;;;;5.83;79.92;102475.25;5074622;28;20275;-38
2023/03/04 06:58:28;;;;;;;19.92;10.48;;;;;;;5.84;79.90;102471.44;5074254;28;20078;-38
2023/03/04 07:00:53;;;;;;;20.30;10.63;;;;;;;5.87;80.03;102471.00;5074376;28;20036;-39
2023/03/04 07:03:20;;;;;;;19.85;10.75;;;;;;;5.91;79.82;102483.16;5056660;28;20468;-38
2023/03/04 07:05:45;;;;;;;20.80;10.80;;;;;;;5.88;79.34;102478.16;5074488;28;20059;-38
2023/03/04 07:08:10;;;;;;;17.75;10.70;;;;;;;5.88;79.55;102478.16;5074475;28;20056;-38
2023/03/04 07:10:36;;;;;;;18.10;10.38;;;;;;;5.90;79.77;102477.91;5074651;28;20039;-39
2023/03/04 07:13:01;;;;;;;20.02;10.77;;;;;;;5.91;79.45;102476.84;5074523;28;20059;-39
2023/03/04 07:15:27;;;;;;;18.25;10.43;;;;;;;5.84;79.78;102476.13;5074309;28;20536;-38
2023/03/04 07:17:52;;;;;;;17.52;10.00;;;;;;;5.85;80.34;102480.53;5074367;28;20063;-38
2023/03/04 07:20:18;;;;;;;19.20;10.43;;;;;;;5.83;80.18;102489.00;5056191;28;20030;-38
2023/03/04 07:22:43;;;;;;;18.20;10.48;;;;;;;5.82;80.10;102489.25;5074141;28;20388;-39
2023/03/04 07:25:09;;;;;;;19.75;11.38;;;;;;;5.80;80.48;102480.38;5073833;28;20075;-38
2023/03/04 07:27:34;;;;;;;19.10;10.60;;;;;;;5.78;80.43;102486.13;5074125;28;20024;-38
2023/03/04 07:29:59;;;;;;;20.20;10.60;;;;;;;5.78;81.15;102491.63;5073887;28;20024;-39
2023/03/04 07:32:25;;;;;;;17.52;10.35;;;;;;;5.77;80.94;102490.75;5074107;28;20468;-38
2023/03/04 07:34:50;;;;;;;19.60;10.13;;;;;;;5.68;81.10;102494.91;5073893;28;20046;-38
2023/03/04 07:37:15;;;;;;;18.20;10.35;;;;;;;5.72;81.76;102498.03;5055941;28;20040;-38
2023/03/04 07:39:41;;;;;;;16.20;10.30;;;;;;;5.71;82.19;102499.94;5073872;28;20028;-39
2023/03/04 07:42:06;;;;;;;17.85;10.57;;;;;;;5.62;82.21;102487.59;5073715;28;20077;-39
2023/03/04 07:44:31;;;;;;;19.90;10.25;;;;;;;5.68;82.17;102510.56;5071053;28;20111;-38
2023/03/04 07:46:57;;;;;;;19.30;10.63;;;;;;;5.65;82.95;102500.88;5069398;28;20029;-39
2023/03/04 07:49:22;;;;;;;21.60;11.38;;;;;;;5.70;82.93;102511.16;5068844;28;20160;-38
2023/03/04 07:51:47;;;;;;;18.90;10.50;;;;;;;5.72;83.76;102517.25;5072171;28;20031;-38
2023/03/04 07:54:12;;;;;;;17.55;10.30;;;;;;;5.72;83.72;102518.09;5072046;28;20048;-38
2023/03/04 07:56:38;;;;;;;17.27;9.88;;;;;;;5.72;83.60;102512.59;5054176;28;20345;-38
2023/03/04 07:59:03;;;;;;;20.27;11.18;;;;;;;5.79;83.77;102509.78;5071947;28;20115;-39
2023/03/04 08:01:35;;;;;;;18.60;10.32;;;;;;;5.84;83.73;102514.56;5071793;28;20053;-39
2023/03/04 08:04:01;;;;;;;19.10;10.00;;;;;;;5.86;83.70;102513.25;5072296;28;20044;-40
2023/03/04 08:06:27;;;;;;;19.30;9.90;;;;;;;6.00;83.83;102510.34;5072154;28;20047;-39
2023/03/04 08:09:01;;;;;;;18.98;9.95;;;;;;;5.93;83.64;102485.69;5071659;28;20036;-38
2023/03/04 08:11:28;;;;;;;19.40;10.00;;;;;;;6.11;83.34;102509.53;5071755;28;20064;-38
2023/03/04 08:13:54;;;;;;;15.82;9.90;;;;;;;6.28;83.78;102514.38;5071302;28;20036;-38
2023/03/04 08:16:20;;;;;;;20.08;10.65;;;;;;;6.29;82.30;102514.13;5071623;28;20021;-38
2023/03/04 08:18:48;;;;;;;18.67;9.93;;;;;;;6.27;81.58;102504.44;5070903;28;20047;-38
2023/03/04 08:21:17;;;;;;;17.50;9.55;;;;;;;6.31;80.68;102511.13;5071529;28;20036;-38
2023/03/04 08:23:42;;;;;;;17.58;9.68;;;;;;;6.38;81.16;102514.59;5071715;28;20029;-38
2023/03/04 08:26:10;;;;;;;20.25;10.10;;;;;;;6.51;80.70;102519.06;5071668;28;20153;-39
2023/03/04 08:28:36;;;;;;;16.67;9.68;;;;;;;6.56;80.34;102519.19;5053214;28;20044;-38
2023/03/04 08:31:02;;;;;;;20.20;10.10;;;;;;;6.64;80.34;102523.50;5071370;28;20082;-38
2023/03/04 08:33:27;;;;;;;19.73;10.20;;;;;;;6.61;79.49;102515.72;5065113;28;20564;-38
2023/03/04 08:35:53;;;;;;;16.88;9.95;;;;;;;6.77;79.27;102522.41;5041222;28;20376;-39
2023/03/04 08:38:18;;;;;;;17.25;9.90;;;;;;;6.87;78.33;102523.47;5059817;28;20020;-40
2023/03/04 08:40:43;;;;;;;16.52;9.85;;;;;;;6.94;77.55;102528.88;5061475;28;20025;-39
2023/03/04 08:43:09;;;;;;;19.80;9.88;;;;;;;6.87;77.58;102504.22;5055654;28;20048;-40
2023/03/04 08:45:34;;;;;;;19.42;10.10;;;;;;;7.08;77.27;102529.47;5060455;28;20028;-39
2023/03/04 08:48:00;;;;;;;18.65;10.30;;;;;;;7.08;77.23;102531.38;5067211;28;20036;-39
2023/03/04 08:50:26;;;;;;;18.00;10.00;;;;;;;7.04;77.13;102517.25;5063904;28;20681;-38
2023/03/04 08:52:52;;;;;;;17.80;9.88;;;;;;;7.10;77.14;102527.31;5062604;28;20025;-39
2023/03/04 08:55:17;;;;;;;16.60;9.38;;;;;;;7.15;77.33;102532.09;5060165;28;20448;-39
2023/03/04 08:57:42;;;;;;;17.83;9.43;;;;;;;7.19;76.97;102525.00;5061909;28;20029;-39
2023/03/04 09:00:08;;;;;;;16.73;9.10;;;;;;;7.07;76.90;102499.44;5060035;28;20436;-39
2023/03/04 09:02:34;;;;;;;15.25;9.15;;;;;;;7.16;77.32;102520.00;5059277;28;20032;-39
2023/03/04 09:04:59;;;;;;;17.23;9.15;;;;;;;7.27;77.29;102521.06;5061684;28;20032;-39
2023/03/04 09:07:24;;;;;;;18.08;9.00;;;;;;;7.31;76.89;102525.00;5059345;28;20029;-39
2023/03/04 09:09:50;;;;;;;17.95;9.20;;;;;;;7.35;76.77;102520.66;5069715;28;20037;-39
2023/03/04 09:12:15;;;;;;;17.67;9.52;;;;;;;7.41;76.72;102525.22;5053069;28;20028;-40
2023/03/04 09:14:40;;;;;;;16.38;9.40;;;;;;;7.41;76.91;102514.22;5070917;28;20028;-39
2023/03/04 09:17:06;;;;;;;16.60;9.50;;;;;;;7.42;77.18;102518.59;5070961;28;20043;-38
2023/03/04 09:19:31;;;;;;;13.43;9.00;;;;;;;7.47;77.58;102506.84;5070743;28;20036;-38
2023/03/04 09:21:58;;;;;;;16.33;9.38;;;;;;;7.46;76.83;102506.03;5070666;28;20031;-38
2023/03/04 09:24:24;;;;;;;14.43;9.30;;;;;;;7.53;76.48;102508.66;5071161;28;20037;-39
2023/03/04 09:26:50;;;;;;;17.77;9.77;;;;;;;7.57;76.31;102498.81;5070889;28;20071;-39
2023/03/04 09:29:16;;;;;;;15.00;9.77;;;;;;;7.55;76.26;102500.13;5070699;28;20880;-39
2023/03/04 09:31:41;;;;;;;15.80;9.80;;;;;;;7.59;76.20;102496.66;5070637;28;20111;-39
2023/03/04 09:34:07;;;;;;;17.33;10.15;;;;;;;7.62;76.13;102498.06;5070597;28;20045;-39
2023/03/04 09:36:32;;;;;;;15.88;9.77;;;;;;;7.69;75.71;102498.78;5070747;28;20472;-39
2023/03/04 09:39:00;;;;;;;12.93;9.73;;;;;;;7.76;74.77;102498.59;5067186;28;20119;-39
2023/03/04 09:41:35;;;;;;;15.65;9.70;;;;;;;7.78;74.71;102489.03;5070734;28;20052;-40
2023/03/04 09:44:06;;;;;;;14.35;9.60;;;;;;;7.81;74.41;102493.22;5070602;28;20025;-39
2023/03/04 09:46:36;;;;;;;16.67;9.68;;;;;;;7.87;74.26;102494.97;5070610;28;20033;-40
2023/03/04 09:49:02;;;;;;;16.52;9.90;;;;;;;7.88;75.04;102496.66;5069421;28;20107;-39
2023/03/04 09:51:50;;;;;;;17.02;9.57;;;;;;;7.83;75.53;102496.56;5069960;28;20025;-39
2023/03/04 09:54:22;;;;;;;18.13;10.02;;;;;;;7.88;75.93;102504.91;5069990;28;20552;-40
2023/03/04 09:56:50;;;;;;;16.15;9.75;;;;;;;7.85;75.93;102494.38;5052472;28;20349;-39
2023/03/04 09:59:28;;;;;;;15.93;9.95;;;;;;;7.92;75.80;102495.09;5070314;28;20085;-40
2023/03/04 10:01:57;;;;;;;15.85;10.20;;;;;;;7.89;75.47;102480.94;5070313;28;20044;-40
2023/03/04 10:04:41;;;;;;;16.02;10.30;;;;;;;7.95;75.13;102497.31;5068652;28;20036;-40
2023/03/04 10:07:18;;;;;;;17.27;10.35;;;;;;;7.86;74.88;102485.03;5069028;28;20078;-40
2023/03/04 10:09:58;;;;;;;16.23;9.80;;;;;;;7.83;75.65;102502.06;5069747;28;20499;-39
2023/03/04 10:12:29;;;;;;;15.75;10.10;;;;;;;7.86;75.32;102496.06;5069298;28;20028;-39
2023/03/04 10:15:17;;;;;;;16.65;9.75;;;;;;;7.90;75.76;102486.22;5052070;28;20055;-40
2023/03/04 10:17:47;;;;;;;18.50;10.57;;;;;;;7.93;75.14;102484.88;5073681;28;20063;-40
2023/03/04 10:20:24;;;;;;;18.70;9.73;;;;;;;7.97;75.08;102480.56;5074139;28;20029;-39
2023/03/04 10:22:55;;;;;;;20.20;10.20;;;;;;;7.97;75.28;102483.31;5074113;28;20146;-39
2023/03/04 10:25:23;;;;;;;16.77;10.10;;;;;;;7.94;74.53;102487.38;5073838;28;20020;-40
2023/03/04 10:28:11;;;;;;;15.32;9.57;;;;;;;7.96;75.21;102485.22;5074152;28;20067;-40
2023/03/04 10:31:35;;;;;;;15.73;10.10;;;;;;;7.92;75.02;102484.06;5060792;28;20469;-37
2023/03/04 10:34:04;;;;;;;14.48;10.00;;;;;;;7.75;75.23;102485.91;4984828;28;20039;-40
2023/03/04 10:36:29;;;;;;;17.48;9.95;;;;;;;7.86;75.71;102496.06;4977241;28;20073;-39
2023/03/04 10:39:03;;;;;;;15.18;9.63;;;;;;;7.84;75.87;102483.59;5019947;28;20060;-38
2023/03/04 10:41:30;;;;;;;14.68;9.80;;;;;;;7.87;76.91;102488.63;5034830;28;20079;-38
2023/03/04 10:43:58;;;;;;;14.50;9.70;;;;;;;7.86;76.69;102485.03;5048236;28;20032;-38
2023/03/04 10:46:24;;;;;;;17.88;9.70;;;;;;;7.89;76.46;102479.03;5034396;28;20437;-38
2023/03/04 10:48:49;;;;;;;17.48;10.00;;;;;;;7.92;76.41;102470.28;5051777;28;20128;-38
2023/03/04 10:51:28;;;;;;;17.00;9.82;;;;;;;7.97;76.90;102467.59;5035396;28;20465;-38
2023/03/04 10:54:04;;;;;;;16.50;10.30;;;;;;;7.91;76.54;102446.56;5053548;28;20037;-39
2023/03/04 10:56:30;;;;;;;15.27;10.20;;;;;;;8.03;76.49;102471.28;5053251;28;20179;-39
2023/03/04 10:59:34;;;;;;;16.60;10.10;;;;;;;8.08;76.79;102468.59;5053246;28;20477;-39
2023/03/04 11:02:09;;;;;;;15.52;10.15;;;;;;;8.12;76.69;102467.03;5053089;28;20098;-39
2023/03/04 11:04:34;;;;;;;17.98;10.60;;;;;;;8.27;76.29;102454.56;5053165;28;20116;-38
2023/03/04 11:07:00;;;;;;;15.60;10.05;;;;;;;8.30;76.22;102462.34;5053112;28;20111;-39
2023/03/04 11:09:28;;;;;;;14.93;10.20;;;;;;;8.25;77.10;102457.59;5053238;28;20037;-39
2023/03/04 11:11:57;;;;;;;16.95;9.80;;;;;;;8.27;77.02;102463.69;5053160;28;20029;-39
2023/03/04 11:14:30;;;;;;;15.80;10.23;;;;;;;8.14;77.18;102428.19;5052863;28;20091;-39
2023/03/04 11:16:57;;;;;;;15.77;10.00;;;;;;;8.26;77.38;102456.50;5052846;28;20481;-39
2023/03/04 11:19:28;;;;;;;15.18;9.95;;;;;;;8.26;77.44;102447.41;5053005;28;20033;-39